createdAt,value
2022-08-14T00:01:54.927Z,11.07
2022-08-14T00:04:35.862Z,10.55
2022-08-14T00:07:11.371Z,10.32
2022-08-14T00:10:02.577Z,9.48
2022-08-14T00:12:33.900Z,11.15
2022-08-14T00:15:18.457Z,9.93
2022-08-14T00:17:53.140Z,11.15
2022-08-14T00:20:31.160Z,10.25
2022-08-14T00:23:16.350Z,10.60
2022-08-14T00:25:58.763Z,12.00
2022-08-14T00:28:35.171Z,14.55
2022-08-14T00:31:02.812Z,11.30
2022-08-14T00:33:50.543Z,11.13
2022-08-14T00:36:37.432Z,10.68
2022-08-14T00:39:04.767Z,9.82
2022-08-14T00:41:33.715Z,10.23
2022-08-14T00:44:01.373Z,11.35
2022-08-14T00:46:32.636Z,11.25
2022-08-14T00:49:02.174Z,12.07
2022-08-14T00:51:37.808Z,12.68
2022-08-14T00:54:11.058Z,10.65
2022-08-14T00:56:49.109Z,9.82
2022-08-14T00:59:16.175Z,13.40
2022-08-14T01:01:44.045Z,10.43
2022-08-14T01:04:52.412Z,9.23
2022-08-14T01:07:00.857Z,11.63
2022-08-14T01:09:31.911Z,10.63
2022-08-14T01:12:02.669Z,10.63
2022-08-14T01:14:30.023Z,11.73
2022-08-14T01:16:57.456Z,11.00
2022-08-14T01:19:44.129Z,11.07
2022-08-14T01:22:13.419Z,12.63
2022-08-14T01:24:45.558Z,11.77
2022-08-14T01:27:20.512Z,11.45
2022-08-14T01:30:03.288Z,12.55
2022-08-14T01:32:37.414Z,14.13
2022-08-14T01:35:20.561Z,13.93
2022-08-14T01:37:57.716Z,10.55
2022-08-14T01:40:33.160Z,12.38
2022-08-14T01:43:08.806Z,11.80
2022-08-14T01:45:41.021Z,11.07
2022-08-14T01:48:13.524Z,12.27
2022-08-14T01:50:42.201Z,12.50
2022-08-14T01:53:10.504Z,13.18
2022-08-14T01:55:40.409Z,13.00
2022-08-14T01:58:19.509Z,11.73
2022-08-14T02:00:54.370Z,13.02
2022-08-14T02:03:29.621Z,11.93
2022-08-14T02:06:03.588Z,11.80
2022-08-14T02:08:35.515Z,13.25
2022-08-14T02:11:18.808Z,12.30
2022-08-14T02:13:50.661Z,13.25
2022-08-14T02:16:22.300Z,12.52
2022-08-14T02:18:49.953Z,12.00
2022-08-14T02:21:19.543Z,12.90
2022-08-14T02:23:53.657Z,13.15
2022-08-14T02:26:32.951Z,14.27
2022-08-14T02:29:22.265Z,12.48
2022-08-14T02:31:54.049Z,14.13
2022-08-14T02:34:31.949Z,13.63
2022-08-14T02:37:07.111Z,12.43
2022-08-14T02:39:42.856Z,11.55
2022-08-14T02:42:12.839Z,13.82
2022-08-14T02:44:48.990Z,13.65
2022-08-14T02:47:19.161Z,12.55
2022-08-14T02:49:50.533Z,13.25
2022-08-14T02:52:55.600Z,11.95
2022-08-14T02:55:08.116Z,13.73
2022-08-14T02:57:39.734Z,12.65
2022-08-14T03:00:09.881Z,15.38
2022-08-14T03:02:55.963Z,12.52
2022-08-14T03:05:24.373Z,13.98
2022-08-14T03:07:51.901Z,14.13
2022-08-14T03:10:27.420Z,13.13
2022-08-14T03:13:00.603Z,13.88
2022-08-14T03:15:27.568Z,14.43
2022-08-14T03:17:56.899Z,15.07
2022-08-14T03:20:29.105Z,12.60
2022-08-14T03:23:02.995Z,11.93
2022-08-14T03:25:33.271Z,14.32
2022-08-14T03:28:04.184Z,13.02
2022-08-14T03:30:39.893Z,18.25
2022-08-14T03:33:10.549Z,13.45
2022-08-14T03:35:40.400Z,13.65
2022-08-14T03:39:13.605Z,13.93
2022-08-14T03:41:16.479Z,12.85
2022-08-14T03:43:44.879Z,14.75
2022-08-14T03:49:02.984Z,17.98
2022-08-14T03:51:30.155Z,15.88
2022-08-14T03:53:58.105Z,14.25
2022-08-14T03:56:26.752Z,15.18
2022-08-14T03:58:58.126Z,16.55
2022-08-14T04:01:29.262Z,18.27
2022-08-14T04:04:06.290Z,15.00
2022-08-14T04:06:47.516Z,14.25
2022-08-14T04:09:14.504Z,14.55
2022-08-14T04:11:45.243Z,13.90
2022-08-14T04:14:16.612Z,15.02
2022-08-14T04:16:46.299Z,14.25
2022-08-14T04:19:19.890Z,14.85
2022-08-14T04:22:03.991Z,17.02
2022-08-14T04:24:37.829Z,14.45
2022-08-14T04:27:10.451Z,15.07
2022-08-14T04:29:42.617Z,19.08
2022-08-14T04:32:59.877Z,17.48
2022-08-14T04:34:57.952Z,16.58
2022-08-14T04:37:45.187Z,14.85
2022-08-14T04:40:31.744Z,14.95
2022-08-14T04:43:17.832Z,16.40
2022-08-14T04:45:45.289Z,15.65
2022-08-14T04:48:39.817Z,17.17
2022-08-14T04:51:07.863Z,15.35
2022-08-14T04:53:41.090Z,14.65
2022-08-14T04:56:30.750Z,15.65
2022-08-14T04:59:02.167Z,16.25
2022-08-14T05:01:39.564Z,15.18
2022-08-14T05:04:07.253Z,17.02
2022-08-14T05:06:38.896Z,16.08
2022-08-14T05:09:07.115Z,17.73
2022-08-14T05:11:37.132Z,16.95
2022-08-14T05:14:16.204Z,19.02
2022-08-14T05:16:52.752Z,17.50
2022-08-14T05:19:26.574Z,16.83
2022-08-14T05:22:15.618Z,17.65
2022-08-14T05:24:44.598Z,15.40
2022-08-14T05:27:11.312Z,16.67
2022-08-14T05:29:37.972Z,17.60
2022-08-14T05:32:07.689Z,16.58
2022-08-14T05:34:34.210Z,16.42
2022-08-14T05:37:03.173Z,18.40
2022-08-14T05:39:31.557Z,15.77
2022-08-14T05:42:00.414Z,16.00
2022-08-14T05:44:30.270Z,21.30
2022-08-14T05:46:58.699Z,17.75
2022-08-14T05:49:32.691Z,17.50
2022-08-14T05:52:01.802Z,16.85
2022-08-14T05:54:31.371Z,15.88
2022-08-14T05:57:04.456Z,19.73
2022-08-14T05:59:39.130Z,19.15
2022-08-14T06:02:11.095Z,20.25
2022-08-14T06:04:48.120Z,18.00
2022-08-14T06:07:16.312Z,19.50
2022-08-14T06:09:43.230Z,21.48
2022-08-14T06:12:55.112Z,21.83
2022-08-14T06:15:08.139Z,19.23
2022-08-14T06:17:58.779Z,19.92
2022-08-14T06:20:26.561Z,17.13
2022-08-14T06:22:55.349Z,20.05
2022-08-14T06:27:49.792Z,18.83
2022-08-14T06:30:19.826Z,18.27
2022-08-14T06:32:47.791Z,20.15
2022-08-14T06:35:23.417Z,17.95
2022-08-14T06:37:55.401Z,17.23
2022-08-14T06:40:28.321Z,17.55
2022-08-14T06:43:16.314Z,18.42
2022-08-14T06:45:50.345Z,18.88
2022-08-14T06:48:24.953Z,19.75
2022-08-14T06:50:53.883Z,18.45
2022-08-14T06:53:22.193Z,17.08
2022-08-14T06:58:31.666Z,17.10
2022-08-14T07:01:25.083Z,17.45
2022-08-14T07:04:22.902Z,17.05
2022-08-14T07:06:50.300Z,15.57
2022-08-14T07:09:22.641Z,16.88
2022-08-14T07:11:50.881Z,16.33
2022-08-14T07:14:17.695Z,15.68
2022-08-14T07:16:44.236Z,14.13
2022-08-14T07:19:11.506Z,16.30
2022-08-14T07:21:39.680Z,17.10
2022-08-14T07:24:06.769Z,17.70
2022-08-14T07:26:36.545Z,14.35
2022-08-14T07:29:05.743Z,14.77
2022-08-14T07:31:33.430Z,14.57
2022-08-14T07:34:00.039Z,13.52
2022-08-14T07:36:31.243Z,14.30
2022-08-14T07:38:59.701Z,16.05
2022-08-14T07:41:33.610Z,16.60
2022-08-14T07:44:29.669Z,12.15
2022-08-14T07:46:50.437Z,12.10
2022-08-14T07:49:17.672Z,11.77
2022-08-14T07:54:12.166Z,11.68
2022-08-14T07:56:47.582Z,11.95
2022-08-14T07:59:18.018Z,13.52
2022-08-14T08:01:51.171Z,11.30
2022-08-14T08:04:24.337Z,10.65
2022-08-14T08:06:53.218Z,14.30
2022-08-14T08:11:54.556Z,13.43
2022-08-14T08:14:25.401Z,11.45
2022-08-14T08:16:54.158Z,12.13
2022-08-14T08:19:20.808Z,10.68
2022-08-14T08:21:47.927Z,10.77
2022-08-14T08:24:19.872Z,13.30
2022-08-14T08:26:48.167Z,14.30
2022-08-14T08:29:28.598Z,11.02
2022-08-14T08:32:01.974Z,12.90
2022-08-14T08:34:45.945Z,11.48
2022-08-14T08:37:14.370Z,11.82
2022-08-14T08:40:03.487Z,12.00
2022-08-14T08:42:38.591Z,10.82
2022-08-14T08:45:12.243Z,10.88
2022-08-14T08:47:40.463Z,10.98
2022-08-14T08:50:31.258Z,11.90
2022-08-14T08:53:00.173Z,11.45
2022-08-14T08:55:40.346Z,10.00
2022-08-14T08:58:16.586Z,9.73
2022-08-14T09:00:54.167Z,12.80
2022-08-14T09:03:27.389Z,12.90
2022-08-14T09:05:58.350Z,10.70
2022-08-14T09:08:33.051Z,10.32
2022-08-14T09:11:19.750Z,11.05
2022-08-14T09:13:49.850Z,10.70
2022-08-14T09:16:20.665Z,11.63
2022-08-14T09:18:48.899Z,12.88
2022-08-14T09:21:16.434Z,10.10
2022-08-14T09:26:29.947Z,10.07
2022-08-14T09:28:59.098Z,10.57
2022-08-14T09:31:28.695Z,9.18
2022-08-14T09:34:37.024Z,10.07
2022-08-14T09:37:23.394Z,8.55
2022-08-14T09:39:59.943Z,9.27
2022-08-14T09:42:44.949Z,11.02
2022-08-14T09:45:24.384Z,10.48
2022-08-14T09:47:54.593Z,10.00
2022-08-14T09:50:43.877Z,10.50
2022-08-14T09:53:17.985Z,9.23
2022-08-14T09:55:45.813Z,9.98
2022-08-14T09:58:22.614Z,12.35
2022-08-14T10:01:00.606Z,8.50
2022-08-14T10:03:35.526Z,12.27
2022-08-14T10:06:04.937Z,9.82
2022-08-14T10:08:42.862Z,8.90
2022-08-14T10:11:19.439Z,11.68
2022-08-14T10:13:56.083Z,10.60
2022-08-14T10:16:33.066Z,11.65
2022-08-14T10:19:05.306Z,10.57
2022-08-14T10:21:38.774Z,10.30
2022-08-14T10:24:36.462Z,10.63
2022-08-14T10:27:04.575Z,8.15
2022-08-14T10:29:34.128Z,10.85
2022-08-14T10:32:01.812Z,8.65
2022-08-14T10:34:35.681Z,9.43
2022-08-14T10:37:14.140Z,9.45
2022-08-14T10:40:01.373Z,8.15
2022-08-14T10:42:36.696Z,7.95
2022-08-14T10:45:18.372Z,9.13
2022-08-14T10:48:08.868Z,8.45
2022-08-14T10:50:32.425Z,9.88
2022-08-14T10:53:00.080Z,8.50
2022-08-14T10:55:45.349Z,10.23
2022-08-14T10:58:12.465Z,8.23
2022-08-14T11:00:55.606Z,8.40
2022-08-14T11:03:35.813Z,10.50
2022-08-14T11:06:20.091Z,8.15
2022-08-14T11:08:48.486Z,8.35
2022-08-14T11:11:18.102Z,8.32
2022-08-14T11:13:46.613Z,7.97
2022-08-14T11:16:18.308Z,9.90
2022-08-14T11:18:50.857Z,7.53
2022-08-14T11:21:23.025Z,7.45
2022-08-14T11:23:53.465Z,7.88
2022-08-14T11:26:24.431Z,7.35
2022-08-14T11:28:52.122Z,6.60
2022-08-14T11:31:23.792Z,7.90
2022-08-14T11:33:55.146Z,8.05
2022-08-14T11:37:02.467Z,7.90
2022-08-14T11:39:34.662Z,7.88
2022-08-14T11:42:07.747Z,7.30
2022-08-14T11:45:00.289Z,7.47
2022-08-14T11:47:34.783Z,7.18
2022-08-14T11:50:13.310Z,8.05
2022-08-14T11:52:40.537Z,7.05
2022-08-14T11:55:12.836Z,7.20
2022-08-14T11:57:41.505Z,6.47
2022-08-14T12:00:14.705Z,7.10
2022-08-14T12:03:03.400Z,8.90
2022-08-14T12:05:39.919Z,9.32
2022-08-14T12:08:12.025Z,7.25
2022-08-14T12:13:17.777Z,9.63
2022-08-14T12:15:46.291Z,7.65
2022-08-14T12:18:19.379Z,7.13
2022-08-14T12:20:52.390Z,8.13
2022-08-14T12:25:59.306Z,6.70
2022-08-14T12:28:33.721Z,10.18
2022-08-14T12:31:20.444Z,8.05
2022-08-14T12:33:59.781Z,9.02
2022-08-14T12:36:30.608Z,8.65
2022-08-14T12:38:58.809Z,7.60
2022-08-14T12:41:34.301Z,7.60
2022-08-14T12:44:06.465Z,7.72
2022-08-14T12:46:37.983Z,7.75
2022-08-14T12:49:13.522Z,6.38
2022-08-14T12:51:44.256Z,9.25
2022-08-14T12:54:27.683Z,11.43
2022-08-14T12:57:14.612Z,7.63
2022-08-14T12:59:45.640Z,7.85
2022-08-14T13:02:26.599Z,8.23
2022-08-14T13:04:56.586Z,7.85
2022-08-14T13:07:26.347Z,9.02
2022-08-14T13:09:58.400Z,7.85
2022-08-14T13:12:32.216Z,6.75
2022-08-14T13:15:08.849Z,11.23
2022-08-14T13:17:51.229Z,8.45
2022-08-14T13:20:24.447Z,9.02
2022-08-14T13:25:21.764Z,7.63
2022-08-14T13:27:54.809Z,8.38
2022-08-14T13:30:24.616Z,8.10
2022-08-14T13:32:53.464Z,8.02
2022-08-14T13:35:22.553Z,6.60
2022-08-14T13:37:52.476Z,6.72
2022-08-14T13:40:26.437Z,8.32
2022-08-14T13:42:56.880Z,9.32
2022-08-14T13:45:33.944Z,7.90
2022-08-14T13:48:32.130Z,7.28
2022-08-14T13:51:01.720Z,10.15
2022-08-14T13:53:33.077Z,7.80
2022-08-14T13:56:01.551Z,8.60
2022-08-14T13:58:35.657Z,9.68
2022-08-14T14:03:35.360Z,7.90
2022-08-14T14:06:03.872Z,7.47
2022-08-14T14:08:46.430Z,7.57
2022-08-14T14:11:17.198Z,9.32
2022-08-14T14:13:46.491Z,9.68
2022-08-14T14:16:15.476Z,10.60
2022-08-14T14:18:56.246Z,8.13
2022-08-14T14:21:26.644Z,8.88
2022-08-14T14:23:56.307Z,6.72
2022-08-14T14:26:25.077Z,8.63
2022-08-14T14:28:56.480Z,8.68
2022-08-14T14:31:29.893Z,7.85
2022-08-14T14:34:07.600Z,9.27
2022-08-14T14:36:52.464Z,8.88
2022-08-14T14:39:27.423Z,7.88
2022-08-14T14:41:59.616Z,12.02
2022-08-14T14:44:42.778Z,7.30
2022-08-14T14:47:10.780Z,8.20
2022-08-14T14:49:51.078Z,6.90
2022-08-14T14:52:26.899Z,6.57
2022-08-14T14:54:57.651Z,7.13
2022-08-14T14:57:35.682Z,8.20
2022-08-14T15:00:18.572Z,7.97
2022-08-14T15:02:52.339Z,8.75
2022-08-14T15:05:20.567Z,7.53
2022-08-14T15:07:49.660Z,7.13
2022-08-14T15:10:27.364Z,8.75
2022-08-14T15:13:00.326Z,7.43
2022-08-14T15:15:30.160Z,6.55
2022-08-14T15:17:59.467Z,7.00
2022-08-14T15:20:29.897Z,8.23
2022-08-14T15:23:08.004Z,8.90
2022-08-14T15:25:39.523Z,7.68
2022-08-14T15:28:11.476Z,9.90
2022-08-14T15:30:46.003Z,7.82
2022-08-14T15:34:13.128Z,6.80
2022-08-14T15:36:35.223Z,6.97
2022-08-14T15:39:02.084Z,8.25
2022-08-14T15:41:33.722Z,7.57
2022-08-14T15:44:25.234Z,7.38
2022-08-14T15:46:53.818Z,8.30
2022-08-14T15:49:21.750Z,7.20
2022-08-14T15:51:48.226Z,6.95
2022-08-14T15:54:17.800Z,7.57
2022-08-14T15:56:59.525Z,7.65
2022-08-14T15:59:27.990Z,8.85
2022-08-14T16:01:55.631Z,7.85
2022-08-14T16:06:54.864Z,7.30
2022-08-14T16:09:22.778Z,7.57
2022-08-14T16:11:53.712Z,6.22
2022-08-14T16:14:21.550Z,8.30
2022-08-14T16:16:51.443Z,6.90
2022-08-14T16:19:30.335Z,6.93
2022-08-14T16:22:03.395Z,8.48
2022-08-14T16:25:00.479Z,7.68
2022-08-14T16:27:33.587Z,7.78
2022-08-14T16:30:20.294Z,9.18
2022-08-14T16:32:54.925Z,7.28
2022-08-14T16:35:26.409Z,9.38
2022-08-14T16:38:19.162Z,8.63
2022-08-14T16:41:16.893Z,7.70
2022-08-14T16:43:48.227Z,7.90
2022-08-14T16:46:22.200Z,10.68
2022-08-14T16:48:55.480Z,8.05
2022-08-14T16:51:23.996Z,8.43
2022-08-14T16:53:50.727Z,7.03
2022-08-14T16:56:23.600Z,8.15
2022-08-14T16:59:05.093Z,9.00
2022-08-14T17:01:31.839Z,7.63
2022-08-14T17:04:08.619Z,9.25
2022-08-14T17:06:55.377Z,8.10
2022-08-14T17:09:43.467Z,9.00
2022-08-14T17:12:33.352Z,8.02
2022-08-14T17:15:11.176Z,7.35
2022-08-14T17:17:49.859Z,6.47
2022-08-14T17:20:53.504Z,8.30
2022-08-14T17:23:12.147Z,6.75
2022-08-14T17:25:40.214Z,7.65
2022-08-14T17:28:49.965Z,12.32
2022-08-14T17:31:05.995Z,7.80
2022-08-14T17:33:40.802Z,7.60
2022-08-14T17:36:24.082Z,8.18
2022-08-14T17:39:15.150Z,9.32
2022-08-14T17:41:45.165Z,8.10
2022-08-14T17:44:45.397Z,6.72
2022-08-14T17:47:14.784Z,7.25
2022-08-14T17:49:52.146Z,7.35
2022-08-14T17:52:34.115Z,7.43
2022-08-14T17:55:12.705Z,7.28
2022-08-14T17:57:57.411Z,7.47
2022-08-14T18:00:26.446Z,9.60
2022-08-14T18:02:54.547Z,9.40
2022-08-14T18:05:23.405Z,7.65
2022-08-14T18:08:33.746Z,8.75
2022-08-14T18:10:57.364Z,8.50
2022-08-14T18:13:51.237Z,9.38
2022-08-14T18:16:20.172Z,7.40
2022-08-14T18:18:51.107Z,7.82
2022-08-14T18:21:24.073Z,7.78
2022-08-14T18:23:52.563Z,7.65
2022-08-14T18:26:37.230Z,10.23
2022-08-14T18:29:14.626Z,8.98
2022-08-14T18:31:43.966Z,9.27
2022-08-14T18:34:32.349Z,7.35
2022-08-14T18:37:09.474Z,8.68
2022-08-14T18:40:02.001Z,8.52
2022-08-14T18:42:33.295Z,8.98
2022-08-14T18:45:01.927Z,8.40
2022-08-14T18:47:56.616Z,9.32
2022-08-14T18:50:31.165Z,8.80
2022-08-14T18:53:07.534Z,8.18
2022-08-14T18:55:53.501Z,9.90
2022-08-14T18:58:31.266Z,8.30
2022-08-14T19:01:01.654Z,12.60
2022-08-14T19:03:34.276Z,11.63
2022-08-14T19:06:09.071Z,9.32
2022-08-14T19:08:45.428Z,9.88
2022-08-14T19:11:40.613Z,10.52
2022-08-14T19:14:08.068Z,10.75
2022-08-14T19:16:37.885Z,10.32
2022-08-14T19:19:11.913Z,9.60
2022-08-14T19:21:55.170Z,9.00
2022-08-14T19:24:34.085Z,10.68
2022-08-14T19:27:23.911Z,10.18
2022-08-14T19:30:19.703Z,13.07
2022-08-14T19:32:51.710Z,11.38
2022-08-14T19:35:49.913Z,10.88
2022-08-14T19:38:53.374Z,10.98
2022-08-14T19:41:33.821Z,9.55
2022-08-14T19:44:15.030Z,14.15
2022-08-14T19:47:02.479Z,9.93
2022-08-14T19:50:08.358Z,10.30
2022-08-14T19:52:25.913Z,9.68
2022-08-14T19:54:56.308Z,10.98
2022-08-14T19:57:25.711Z,9.70
2022-08-14T20:00:29.299Z,12.30
2022-08-14T20:03:10.154Z,12.63
2022-08-14T20:05:45.358Z,9.05
2022-08-14T20:10:57.990Z,12.20
2022-08-14T20:11:19.130Z,10.93
2022-08-14T20:14:29.719Z,9.95
2022-08-14T20:17:05.973Z,9.98
2022-08-14T20:19:37.957Z,11.90
2022-08-14T20:22:35.483Z,11.68
2022-08-14T20:25:11.006Z,11.88
2022-08-14T20:27:40.875Z,9.85
2022-08-14T20:30:35.117Z,13.07
2022-08-14T20:33:07.299Z,11.50
2022-08-14T20:35:42.276Z,11.73
2022-08-14T20:38:30.539Z,10.90
2022-08-14T20:41:05.553Z,12.23
2022-08-14T20:43:53.435Z,13.90
2022-08-14T20:46:29.602Z,13.73
2022-08-14T20:49:00.153Z,12.73
2022-08-14T20:51:47.631Z,13.40
2022-08-14T20:54:34.757Z,13.75
2022-08-14T20:57:11.874Z,14.95
2022-08-14T20:59:53.139Z,13.40
2022-08-14T21:02:46.175Z,13.50
2022-08-14T21:05:18.039Z,17.00
2022-08-14T21:07:51.078Z,12.70
2022-08-14T21:10:35.721Z,12.55
2022-08-14T21:13:26.373Z,15.07
2022-08-14T21:15:57.823Z,15.25
2022-08-14T21:18:26.068Z,12.98
2022-08-14T21:20:56.440Z,13.00
2022-08-14T21:23:23.180Z,14.45
2022-08-14T21:25:50.064Z,16.35
2022-08-14T21:28:29.450Z,16.40
2022-08-14T21:30:57.912Z,13.20
2022-08-14T21:33:25.373Z,15.07
2022-08-14T21:35:54.976Z,13.10
2022-08-14T21:38:33.805Z,13.40
2022-08-14T21:41:43.530Z,14.25
2022-08-14T21:44:18.226Z,15.55
2022-08-14T21:46:56.791Z,12.13
2022-08-14T21:49:34.038Z,12.68
2022-08-14T21:52:51.180Z,13.65
2022-08-14T21:55:09.382Z,14.55
2022-08-14T21:58:44.835Z,13.55
2022-08-14T22:03:08.972Z,14.57
2022-08-14T22:05:38.932Z,13.98
2022-08-14T22:08:06.849Z,14.38
2022-08-14T22:10:34.729Z,13.75
2022-08-14T22:13:01.936Z,12.98
2022-08-14T22:15:30.055Z,12.15
2022-08-14T22:17:58.328Z,14.82
2022-08-14T22:20:28.704Z,14.68
2022-08-14T22:22:56.753Z,14.18
2022-08-14T22:25:33.874Z,13.88
2022-08-14T22:28:05.900Z,14.98
2022-08-14T22:30:34.100Z,14.63
2022-08-14T22:33:01.271Z,14.80
2022-08-14T22:35:29.254Z,14.98
2022-08-14T22:38:34.560Z,13.80
2022-08-14T22:41:02.092Z,13.98
2022-08-14T22:43:34.954Z,14.95
2022-08-14T22:46:02.795Z,15.75
2022-08-14T22:48:33.276Z,13.90
2022-08-14T22:51:06.306Z,14.73
2022-08-14T22:53:34.125Z,12.80
2022-08-14T22:56:01.261Z,13.85
2022-08-14T22:58:34.671Z,16.00
2022-08-14T23:01:04.669Z,13.90
2022-08-14T23:03:34.937Z,15.02
2022-08-14T23:06:04.352Z,14.60
2022-08-14T23:09:01.089Z,15.52
2022-08-14T23:11:38.104Z,14.25
2022-08-14T23:14:09.733Z,16.00
2022-08-14T23:16:39.203Z,13.45
2022-08-14T23:19:11.011Z,13.88
2022-08-14T23:21:46.332Z,13.85
2022-08-14T23:24:14.124Z,13.27
2022-08-14T23:26:48.988Z,13.57
2022-08-14T23:29:20.480Z,14.63
2022-08-14T23:31:48.941Z,14.63
2022-08-14T23:36:56.220Z,15.07
2022-08-14T23:39:29.940Z,14.93
2022-08-14T23:42:02.496Z,16.05
2022-08-14T23:44:34.737Z,15.40
2022-08-14T23:47:03.466Z,16.10
2022-08-14T23:49:56.708Z,16.33
2022-08-14T23:52:56.203Z,15.73
2022-08-14T23:55:11.396Z,14.65
2022-08-14T23:57:43.681Z,15.85
